Terminal Aerodrome Forecast
Issued by NWS

Home | Current Version | Previous Version | Text Only | Print | Product List | Glossary On
Versions: 1 2 3 4 5 6 7 8 9 10 11 12 13 14
000
FTUS46 KMTR 270302 AAA
TAFSNS
TAF AMD
KSNS 270302Z 2703/2724 29004KT P6SM SKC
     FM270900 VRB04KT P6SM VCSH BKN050
     FM271700 26010KT P6SM BKN060=

USA.gov is the U.S. government's official web portal to all federal, state and local government web resources and services.